Time;durP1;ratioP1;P1;durP2;ratioP2;P2;SDS_P1;SDS_P2;PMS_P1;PMS_P2;Temp;Humidity;BMP_temperature;BMP_pressure;BME280_temperature;BME280_humidity;BME280_pressure;Samples;Min_cycle;Max_cycle;Signal;HPM_P1;HPM_P2
2021/04/25 00:01:15;;;;;;;10.93;4.47;;;8.50;68.90;;;;;;5052823;28;20132;-81
2021/04/25 00:03:41;;;;;;;13.40;4.30;;;8.40;69.40;;;;;;5071341;28;20024;-80
2021/04/25 00:06:06;;;;;;;9.73;4.07;;;8.40;69.50;;;;;;5072600;28;20017;-80
2021/04/25 00:08:32;;;;;;;10.90;4.43;;;8.50;69.50;;;;;;5072967;28;20027;-80
2021/04/25 00:11:01;;;;;;;9.60;4.23;;;8.50;69.20;;;;;;5073247;28;20081;-83
2021/04/25 00:13:27;;;;;;;7.70;3.83;;;8.40;69.30;;;;;;5073358;28;20021;-80
2021/04/25 00:15:54;;;;;;;9.77;4.67;;;8.40;69.60;;;;;;5054926;28;20032;-79
2021/04/25 00:18:19;;;;;;;10.47;4.50;;;8.40;70.00;;;;;;5054797;28;20036;-80
2021/04/25 00:20:45;;;;;;;9.50;4.00;;;8.40;70.30;;;;;;5072385;28;20112;-80
2021/04/25 00:23:11;;;;;;;11.13;4.20;;;8.40;70.20;;;;;;5055917;28;20063;-80
2021/04/25 00:25:36;;;;;;;14.43;5.17;;;8.40;70.20;;;;;;5072823;28;20513;-81
2021/04/25 00:28:02;;;;;;;12.97;4.40;;;8.40;70.30;;;;;;5072475;28;20089;-83
2021/04/25 00:30:28;;;;;;;12.47;4.43;;;8.20;70.30;;;;;;5054632;28;20028;-82
2021/04/25 00:32:54;;;;;;;9.57;4.70;;;8.20;71.00;;;;;;5073348;28;20040;-80
2021/04/25 00:35:20;;;;;;;11.17;4.03;;;8.30;70.80;;;;;;5073021;28;20051;-80
2021/04/25 00:37:46;;;;;;;8.63;4.37;;;8.20;71.30;;;;;;5054997;28;20111;-80
2021/04/25 00:40:14;;;;;;;12.13;4.50;;;8.30;71.00;;;;;;5073081;28;20071;-80
2021/04/25 00:42:41;;;;;;;9.93;4.37;;;8.20;71.40;;;;;;5073036;28;20027;-79
2021/04/25 00:45:12;;;;;;;9.03;4.20;;;8.10;72.30;;;;;;5054640;28;20016;-80
2021/04/25 00:47:38;;;;;;;14.27;4.97;;;8.10;71.90;;;;;;5073306;28;20032;-80
2021/04/25 00:50:04;;;;;;;9.20;4.30;;;8.00;72.10;;;;;;5073382;28;20024;-80
2021/04/25 00:52:30;;;;;;;11.63;4.80;;;8.00;72.50;;;;;;5073429;28;20108;-80
2021/04/25 00:54:56;;;;;;;11.00;4.33;;;7.90;72.70;;;;;;5072950;28;20106;-80
2021/04/25 00:57:22;;;;;;;11.63;4.43;;;8.00;72.40;;;;;;5054607;28;20029;-79
2021/04/25 00:59:48;;;;;;;9.50;4.03;;;7.90;73.00;;;;;;5072683;28;20087;-81
2021/04/25 01:02:14;;;;;;;11.20;4.50;;;7.80;73.10;;;;;;5055329;28;20024;-80
2021/04/25 01:04:40;;;;;;;13.27;4.67;;;7.70;73.10;;;;;;5055111;28;20020;-80
2021/04/25 01:07:05;;;;;;;9.50;4.53;;;7.90;73.10;;;;;;5058278;28;20103;-80
2021/04/25 01:09:32;;;;;;;13.10;5.00;;;7.90;72.70;;;;;;5076347;28;20102;-82
2021/04/25 01:11:58;;;;;;;11.23;4.50;;;7.80;73.00;;;;;;5075993;28;20028;-81
2021/04/25 01:14:23;;;;;;;9.10;4.30;;;7.70;73.10;;;;;;5075620;28;20107;-86
2021/04/25 01:16:49;;;;;;;12.30;4.90;;;7.80;73.00;;;;;;5055826;28;20082;-85
2021/04/25 01:19:15;;;;;;;10.23;4.87;;;7.90;73.00;;;;;;5037230;28;20040;-80
2021/04/25 01:21:41;;;;;;;9.33;4.60;;;7.80;73.30;;;;;;5038723;28;20025;-80
2021/04/25 01:24:07;;;;;;;10.63;4.83;;;7.90;72.90;;;;;;5056085;28;20107;-80
2021/04/25 01:26:32;;;;;;;10.37;4.47;;;7.80;73.20;;;;;;5038070;28;20032;-82
2021/04/25 01:28:58;;;;;;;12.70;5.37;;;7.80;73.50;;;;;;5055722;28;20044;-82
2021/04/25 01:31:24;;;;;;;9.93;5.87;;;7.90;73.10;;;;;;5056022;28;20542;-83
2021/04/25 01:33:49;;;;;;;11.70;4.67;;;7.70;74.20;;;;;;5038014;28;20044;-80
2021/04/25 01:36:15;;;;;;;11.33;4.80;;;7.70;74.00;;;;;;5056372;28;20025;-83
2021/04/25 01:38:41;;;;;;;11.73;5.03;;;7.70;73.50;;;;;;5038329;28;20055;-81
2021/04/25 01:41:07;;;;;;;9.80;5.00;;;7.70;73.80;;;;;;5038211;28;20111;-81
2021/04/25 01:43:33;;;;;;;13.20;5.00;;;7.50;74.10;;;;;;5037678;28;20060;-80
2021/04/25 01:45:59;;;;;;;13.87;5.57;;;7.50;74.40;;;;;;5055688;28;20021;-81
2021/04/25 01:48:25;;;;;;;11.43;5.27;;;7.50;74.60;;;;;;5037880;28;20024;-81
2021/04/25 01:50:50;;;;;;;13.93;5.70;;;7.60;74.00;;;;;;5055048;28;20037;-82
2021/04/25 01:53:16;;;;;;;12.03;4.90;;;7.60;74.10;;;;;;5037607;28;20497;-80
2021/04/25 01:55:42;;;;;;;12.80;5.43;;;7.60;74.60;;;;;;5055370;28;20036;-79
2021/04/25 01:58:10;;;;;;;14.97;4.93;;;7.60;74.30;;;;;;5055492;28;20024;-79
2021/04/25 02:00:41;;;;;;;11.17;4.73;;;7.40;74.40;;;;;;5037208;28;20036;-80
2021/04/25 02:03:08;;;;;;;10.17;4.90;;;7.40;74.50;;;;;;5055613;28;20076;-81
2021/04/25 02:05:34;;;;;;;11.50;6.07;;;7.40;74.80;;;;;;5037171;28;20116;-82
2021/04/25 02:08:00;;;;;;;10.77;5.20;;;7.40;74.60;;;;;;5036943;28;20098;-80
2021/04/25 02:10:25;;;;;;;11.83;5.50;;;7.40;74.80;;;;;;5036525;28;20017;-81
2021/04/25 02:12:52;;;;;;;11.77;5.10;;;7.40;74.60;;;;;;5037231;28;20021;-80
2021/04/25 02:15:19;;;;;;;14.33;5.00;;;7.40;74.90;;;;;;5055114;28;20032;-80
2021/04/25 02:17:45;;;;;;;10.27;4.77;;;7.40;75.20;;;;;;5054077;28;20021;-82
2021/04/25 02:20:12;;;;;;;12.17;5.33;;;7.40;75.30;;;;;;5054486;28;20025;-82
2021/04/25 02:22:38;;;;;;;11.77;5.43;;;7.30;75.30;;;;;;5053836;28;20084;-83
2021/04/25 02:25:07;;;;;;;15.20;5.87;;;7.40;75.20;;;;;;5054984;28;20013;-82
2021/04/25 02:27:32;;;;;;;13.50;5.53;;;7.30;75.30;;;;;;5055378;28;20054;-83
2021/04/25 02:30:00;;;;;;;11.47;5.23;;;7.30;75.50;;;;;;5054378;28;20267;-81
2021/04/25 02:32:25;;;;;;;11.87;5.43;;;7.30;76.40;;;;;;5055109;28;20512;-83
2021/04/25 02:34:51;;;;;;;13.20;5.33;;;7.30;75.50;;;;;;5037280;28;20021;-82
2021/04/25 02:37:17;;;;;;;15.33;5.57;;;7.30;75.60;;;;;;5057294;28;20033;-80
2021/04/25 02:39:43;;;;;;;16.17;5.60;;;7.40;75.60;;;;;;5057516;28;20025;-81
2021/04/25 02:42:08;;;;;;;10.20;5.67;;;7.30;75.50;;;;;;5058603;28;20544;-81
2021/04/25 02:44:34;;;;;;;11.80;5.37;;;7.30;75.70;;;;;;5055485;28;20025;-80
2021/04/25 02:47:00;;;;;;;13.43;5.70;;;7.20;75.90;;;;;;5054504;28;20071;-81
2021/04/25 02:49:25;;;;;;;13.60;5.23;;;7.20;76.00;;;;;;5036051;28;20091;-84
2021/04/25 02:51:52;;;;;;;15.87;5.87;;;7.30;76.00;;;;;;5054202;28;20096;-80
2021/04/25 02:54:18;;;;;;;12.83;5.87;;;7.30;75.80;;;;;;5036247;28;20388;-80
2021/04/25 02:56:43;;;;;;;11.83;5.40;;;7.30;75.60;;;;;;5054577;28;20033;-80
2021/04/25 02:59:09;;;;;;;13.10;6.10;;;7.30;75.60;;;;;;5054132;28;20025;-81
2021/04/25 03:01:34;;;;;;;15.10;6.33;;;7.30;75.50;;;;;;5054498;28;20033;-81
2021/04/25 03:04:00;;;;;;;12.87;5.80;;;7.20;76.00;;;;;;5054441;28;20022;-84
2021/04/25 03:06:26;;;;;;;18.00;5.93;;;7.20;76.30;;;;;;5036347;28;20031;-80
2021/04/25 03:08:51;;;;;;;11.63;5.53;;;7.20;76.30;;;;;;5045560;28;20028;-79
2021/04/25 03:11:17;;;;;;;14.90;6.40;;;7.20;76.40;;;;;;5039504;28;20025;-80
2021/04/25 03:13:46;;;;;;;14.17;6.00;;;7.30;76.30;;;;;;5055508;28;20048;-79
2021/04/25 03:16:12;;;;;;;12.75;5.93;;;7.20;76.40;;;;;;5037257;28;20029;-79
2021/04/25 03:18:37;;;;;;;12.43;5.67;;;7.40;76.90;;;;;;5037615;28;20079;-79
2021/04/25 03:21:03;;;;;;;14.47;6.07;;;7.30;76.30;;;;;;5054765;28;20029;-80
2021/04/25 03:23:29;;;;;;;11.33;5.93;;;7.20;76.20;;;;;;5055296;28;20024;-79
2021/04/25 03:25:55;;;;;;;12.50;6.00;;;7.30;76.30;;;;;;5053068;28;20025;-81
2021/04/25 03:28:20;;;;;;;17.23;6.67;;;7.30;76.20;;;;;;5052780;28;20033;-80
2021/04/25 03:30:46;;;;;;;12.07;5.50;;;7.40;76.10;;;;;;5052492;28;20025;-79
2021/04/25 03:33:12;;;;;;;15.93;6.37;;;7.40;75.80;;;;;;5053349;28;20033;-79
2021/04/25 03:35:38;;;;;;;14.40;5.97;;;7.30;76.20;;;;;;5053102;28;20040;-79
2021/04/25 03:38:03;;;;;;;11.73;5.93;;;7.30;76.10;;;;;;5053269;28;20484;-80
2021/04/25 03:40:29;;;;;;;13.13;6.13;;;7.20;76.30;;;;;;5053125;28;20029;-82
2021/04/25 03:42:54;;;;;;;14.93;5.80;;;7.20;76.40;;;;;;5036474;28;20066;-80
2021/04/25 03:45:20;;;;;;;15.47;6.70;;;7.10;76.50;;;;;;5035969;28;20025;-80
2021/04/25 03:47:51;;;;;;;15.47;6.47;;;7.20;76.50;;;;;;5036169;28;20025;-80
2021/04/25 03:50:19;;;;;;;15.03;5.97;;;7.20;76.10;;;;;;5054256;28;20517;-79
2021/04/25 03:52:46;;;;;;;13.70;6.17;;;7.20;76.30;;;;;;5035562;28;20108;-79
2021/04/25 03:55:13;;;;;;;12.97;5.87;;;7.10;76.40;;;;;;5053639;28;20043;-80
2021/04/25 03:57:39;;;;;;;14.63;5.83;;;7.10;76.60;;;;;;5035815;28;20142;-80
2021/04/25 04:00:08;;;;;;;16.17;5.80;;;7.10;76.40;;;;;;5053209;28;20124;-80
2021/04/25 04:02:34;;;;;;;15.00;5.85;;;7.10;76.30;;;;;;5053750;28;20138;-81
2021/04/25 04:05:00;;;;;;;13.47;6.20;;;7.10;75.90;;;;;;5054567;28;20028;-81
2021/04/25 04:07:25;;;;;;;12.60;6.00;;;7.10;76.00;;;;;;5054658;28;20036;-82
2021/04/25 04:09:52;;;;;;;14.43;5.73;;;7.00;76.00;;;;;;5053768;28;20079;-80
2021/04/25 04:12:18;;;;;;;13.10;6.27;;;7.00;76.20;;;;;;5036980;28;20029;-81
2021/04/25 04:14:44;;;;;;;14.60;5.20;;;7.10;75.80;;;;;;5053634;28;20055;-81
2021/04/25 04:17:09;;;;;;;13.73;5.77;;;7.10;75.40;;;;;;5035119;28;20033;-80
2021/04/25 04:19:35;;;;;;;11.17;5.90;;;7.00;75.40;;;;;;5052400;28;20443;-80
2021/04/25 04:22:01;;;;;;;12.63;5.70;;;7.00;75.00;;;;;;5035259;28;20029;-80
2021/04/25 04:24:26;;;;;;;11.77;5.17;;;7.10;75.20;;;;;;5052901;28;20029;-82
2021/04/25 04:26:52;;;;;;;14.37;5.90;;;7.00;75.00;;;;;;5035582;28;20025;-80
2021/04/25 04:29:18;;;;;;;12.27;5.17;;;7.10;74.20;;;;;;5053379;28;20104;-83
2021/04/25 04:31:44;;;;;;;11.90;5.23;;;7.00;74.80;;;;;;5036145;28;20162;-80
2021/04/25 04:34:09;;;;;;;15.50;5.60;;;6.90;74.80;;;;;;5054257;28;20056;-79
2021/04/25 04:36:35;;;;;;;13.57;5.60;;;7.00;74.60;;;;;;5054215;28;20096;-80
2021/04/25 04:39:00;;;;;;;20.47;5.90;;;6.90;74.80;;;;;;5035046;28;20029;-82
2021/04/25 04:41:26;;;;;;;13.20;5.50;;;6.90;74.20;;;;;;5055477;28;20504;-79
2021/04/25 04:43:53;;;;;;;15.53;6.83;;;6.90;73.80;;;;;;5039395;28;20091;-79
2021/04/25 04:46:19;;;;;;;12.03;5.17;;;7.00;74.60;;;;;;5057246;28;20070;-79
2021/04/25 04:48:45;;;;;;;14.97;5.73;;;7.00;74.00;;;;;;5038997;28;20111;-81
2021/04/25 04:51:11;;;;;;;14.93;5.40;;;7.00;73.80;;;;;;5038485;28;20021;-80
2021/04/25 04:53:36;;;;;;;13.47;5.13;;;7.00;73.30;;;;;;5057046;28;20021;-80
2021/04/25 04:56:02;;;;;;;11.43;4.77;;;7.00;73.30;;;;;;5039050;28;20075;-80
2021/04/25 04:58:28;;;;;;;10.77;5.10;;;7.00;73.30;;;;;;5057047;28;20036;-79
2021/04/25 05:00:53;;;;;;;13.23;4.83;;;7.10;73.60;;;;;;5037950;28;20095;-80
2021/04/25 05:03:19;;;;;;;12.57;4.70;;;7.10;72.40;;;;;;5055831;28;20017;-82
2021/04/25 05:05:44;;;;;;;13.30;4.67;;;7.20;72.20;;;;;;5055817;28;20033;-80
2021/04/25 05:08:10;;;;;;;11.53;4.60;;;7.10;72.00;;;;;;5056493;28;20018;-80
2021/04/25 05:10:35;;;;;;;12.93;4.60;;;7.20;72.30;;;;;;5056316;28;20021;-79
2021/04/25 05:13:01;;;;;;;11.50;4.53;;;7.20;71.40;;;;;;5055892;28;20021;-82
2021/04/25 05:15:27;;;;;;;10.53;4.10;;;7.30;71.40;;;;;;5056131;28;20029;-83
2021/04/25 05:17:52;;;;;;;14.47;4.30;;;7.20;69.80;;;;;;5056841;28;20088;-81
2021/04/25 05:20:18;;;;;;;11.30;3.87;;;7.30;69.90;;;;;;5037727;28;20056;-82
2021/04/25 05:22:44;;;;;;;11.47;4.03;;;7.40;70.00;;;;;;5038295;28;20025;-82
2021/04/25 05:25:10;;;;;;;13.27;4.50;;;7.40;69.70;;;;;;5038582;28;20063;-84
2021/04/25 05:27:36;;;;;;;11.57;4.30;;;7.40;69.30;;;;;;5056465;28;20045;-85
2021/04/25 05:30:02;;;;;;;8.07;3.77;;;7.40;69.10;;;;;;5037809;28;20051;-81
2021/04/25 05:32:28;;;;;;;11.87;4.70;;;7.50;69.30;;;;;;5056540;28;20509;-81
2021/04/25 05:34:54;;;;;;;9.50;4.40;;;7.50;69.10;;;;;;5038458;28;20033;-82
2021/04/25 05:37:20;;;;;;;10.13;4.53;;;7.30;68.90;;;;;;5056345;28;20037;-81
2021/04/25 05:39:45;;;;;;;12.87;4.57;;;7.40;69.00;;;;;;5056407;28;20029;-81
2021/04/25 05:42:11;;;;;;;8.37;4.10;;;7.50;68.10;;;;;;5067025;28;20473;-81
2021/04/25 05:44:36;;;;;;;11.10;4.53;;;7.50;68.30;;;;;;5076198;28;20062;-81
2021/04/25 05:47:02;;;;;;;8.00;3.80;;;7.50;68.50;;;;;;5058811;28;20428;-82
2021/04/25 05:49:29;;;;;;;9.93;4.17;;;7.60;68.00;;;;;;5056780;28;20121;-81
2021/04/25 05:51:54;;;;;;;9.03;4.60;;;7.60;67.60;;;;;;5038708;28;20036;-81
2021/04/25 05:54:20;;;;;;;13.00;4.93;;;7.60;67.90;;;;;;5039589;28;20029;-80
2021/04/25 05:56:46;;;;;;;7.83;4.13;;;7.60;67.80;;;;;;5055585;28;20029;-83
2021/04/25 05:59:11;;;;;;;9.73;4.10;;;7.70;67.80;;;;;;5056865;28;20029;-86
2021/04/25 06:01:37;;;;;;;8.07;3.73;;;7.60;68.00;;;;;;5039087;28;20078;-84
2021/04/25 06:04:05;;;;;;;10.97;4.33;;;7.70;68.00;;;;;;5059211;28;20082;-83
2021/04/25 06:06:31;;;;;;;10.13;3.90;;;7.70;67.90;;;;;;5062028;28;20016;-84
2021/04/25 06:08:58;;;;;;;11.60;4.23;;;7.70;67.70;;;;;;5060997;28;20032;-82
2021/04/25 06:11:23;;;;;;;10.77;4.33;;;7.70;67.30;;;;;;5077489;28;20048;-84
2021/04/25 06:13:49;;;;;;;9.67;4.40;;;7.70;67.50;;;;;;5078444;28;20326;-83
2021/04/25 06:16:15;;;;;;;12.53;4.63;;;7.70;67.50;;;;;;5078353;28;20035;-81
2021/04/25 06:18:41;;;;;;;8.60;3.97;;;7.80;67.30;;;;;;5077397;28;20066;-81
2021/04/25 06:21:06;;;;;;;11.07;4.07;;;7.70;67.00;;;;;;5076799;28;20059;-79
2021/04/25 06:23:32;;;;;;;9.57;4.50;;;7.60;66.90;;;;;;5077344;28;20046;-82
2021/04/25 06:25:57;;;;;;;7.77;3.70;;;7.70;67.30;;;;;;5077176;28;20021;-82
2021/04/25 06:28:27;;;;;;;11.53;4.40;;;7.70;67.80;;;;;;5076683;28;20032;-83
2021/04/25 06:30:53;;;;;;;11.23;4.32;;;7.70;67.70;;;;;;5058157;28;20039;-83
2021/04/25 06:33:19;;;;;;;8.13;3.70;;;7.70;67.50;;;;;;5062347;28;20028;-83
2021/04/25 06:35:44;;;;;;;10.63;4.80;;;7.70;67.10;;;;;;5081920;28;20408;-82
2021/04/25 06:38:10;;;;;;;8.87;4.27;;;7.60;67.40;;;;;;5085775;28;20084;-80
2021/04/25 06:40:36;;;;;;;9.63;3.97;;;7.70;67.60;;;;;;5080810;28;20028;-80
2021/04/25 06:43:04;;;;;;;8.77;3.77;;;7.50;67.60;;;;;;5068445;28;20103;-83
2021/04/25 06:45:30;;;;;;;11.40;4.10;;;7.70;67.50;;;;;;5084904;28;20017;-80
2021/04/25 06:47:56;;;;;;;9.50;4.17;;;7.60;66.90;;;;;;5057397;28;20021;-81
2021/04/25 06:50:22;;;;;;;9.73;5.17;;;7.70;67.50;;;;;;5053938;28;20036;-81
2021/04/25 06:52:48;;;;;;;11.53;4.77;;;7.80;67.30;;;;;;5053996;28;20146;-81
2021/04/25 06:55:18;;;;;;;12.47;5.17;;;7.90;66.40;;;;;;5071852;28;20027;-80
2021/04/25 06:57:44;;;;;;;12.07;6.20;;;7.80;66.60;;;;;;5053582;28;20024;-80
2021/04/25 07:00:11;;;;;;;11.17;5.10;;;7.80;77.60;;;;;;5070999;28;20036;-80
2021/04/25 07:02:36;;;;;;;12.00;5.33;;;7.90;71.60;;;;;;5053815;28;20081;-80
2021/04/25 07:05:03;;;;;;;11.87;5.87;;;7.90;70.60;;;;;;5052825;28;20109;-80
2021/04/25 07:07:30;;;;;;;11.93;5.30;;;7.90;68.40;;;;;;5038829;28;20071;-82
2021/04/25 07:09:56;;;;;;;9.53;5.30;;;7.90;68.70;;;;;;5034447;28;20065;-80
2021/04/25 07:12:22;;;;;;;10.30;4.63;;;7.90;67.80;;;;;;5034784;28;20500;-81
2021/04/25 07:14:47;;;;;;;12.77;5.67;;;7.80;68.00;;;;;;5051733;28;20033;-80
2021/04/25 07:17:13;;;;;;;12.23;5.30;;;7.80;68.00;;;;;;5033966;28;20025;-80
2021/04/25 07:19:39;;;;;;;16.47;5.77;;;7.80;67.60;;;;;;5051259;28;20045;-79
2021/04/25 07:22:04;;;;;;;11.00;5.50;;;7.80;68.00;;;;;;5033466;28;20063;-80
2021/04/25 07:24:30;;;;;;;12.10;5.40;;;7.90;67.00;;;;;;5052494;28;20017;-84
2021/04/25 07:26:56;;;;;;;11.93;5.70;;;8.00;66.00;;;;;;5034218;28;20485;-84
2021/04/25 07:29:22;;;;;;;10.60;5.33;;;8.10;65.60;;;;;;5052187;28;20678;-83
2021/04/25 07:31:48;;;;;;;13.73;6.40;;;8.10;65.90;;;;;;5034533;28;20468;-81
2021/04/25 07:34:13;;;;;;;8.57;6.00;;;8.10;65.50;;;;;;5053720;28;20025;-81
2021/04/25 07:36:39;;;;;;;12.73;6.73;;;8.20;67.20;;;;;;5053777;28;20025;-81
2021/04/25 07:39:05;;;;;;;10.00;5.90;;;8.20;67.20;;;;;;5054158;28;20372;-79
2021/04/25 07:41:31;;;;;;;10.50;5.80;;;8.20;66.50;;;;;;5036897;28;20024;-80
2021/04/25 07:43:57;;;;;;;13.97;5.80;;;8.20;66.20;;;;;;5057271;28;20040;-81
2021/04/25 07:46:23;;;;;;;11.10;6.17;;;8.20;66.30;;;;;;5052038;28;20021;-82
2021/04/25 07:48:49;;;;;;;11.73;6.30;;;8.30;65.30;;;;;;5051774;28;20037;-83
2021/04/25 07:51:15;;;;;;;11.13;6.63;;;8.30;65.10;;;;;;5052892;28;20416;-84
2021/04/25 07:53:41;;;;;;;9.50;6.63;;;8.20;63.70;;;;;;5061926;28;20024;-83
2021/04/25 07:56:07;;;;;;;10.57;6.40;;;8.20;64.20;;;;;;5073786;28;20040;-84
2021/04/25 07:58:33;;;;;;;11.07;6.50;;;8.20;64.20;;;;;;5062168;28;20036;-84
2021/04/25 08:00:58;;;;;;;9.93;6.20;;;8.20;64.40;;;;;;5072725;28;20036;-84
2021/04/25 08:03:24;;;;;;;13.47;7.87;;;8.20;64.40;;;;;;5074975;28;20028;-83
2021/04/25 08:05:50;;;;;;;16.93;7.83;;;8.30;64.20;;;;;;5056862;28;20025;-85
2021/04/25 08:08:15;;;;;;;13.07;7.03;;;8.10;64.20;;;;;;5056792;28;20442;-85
2021/04/25 08:10:42;;;;;;;14.63;6.53;;;8.10;64.30;;;;;;5056720;28;20033;-84
2021/04/25 08:13:08;;;;;;;9.77;6.90;;;8.10;65.20;;;;;;5057305;28;20034;-83
2021/04/25 08:15:34;;;;;;;12.33;6.57;;;8.20;64.60;;;;;;5056468;28;20120;-84
2021/04/25 08:18:01;;;;;;;11.90;6.77;;;8.20;64.40;;;;;;5054875;28;20092;-84
2021/04/25 08:20:26;;;;;;;10.13;6.40;;;8.10;64.10;;;;;;5070247;28;20464;-84
2021/04/25 08:22:52;;;;;;;10.83;5.43;;;7.90;64.30;;;;;;5071564;28;20020;-83
2021/04/25 08:25:18;;;;;;;11.13;5.70;;;7.90;63.80;;;;;;5052962;28;20024;-85
2021/04/25 08:27:44;;;;;;;10.10;5.20;;;7.70;64.90;;;;;;5071088;28;20025;-85
2021/04/25 08:30:10;;;;;;;10.03;4.43;;;7.60;65.30;;;;;;5051694;28;20191;-82
2021/04/25 08:32:36;;;;;;;8.67;4.33;;;7.70;65.40;;;;;;5070534;28;20090;-84
2021/04/25 08:35:03;;;;;;;9.07;5.33;;;7.80;65.20;;;;;;5071050;28;20473;-83
2021/04/25 08:37:28;;;;;;;8.20;4.33;;;8.00;71.80;;;;;;5071330;28;20025;-84
2021/04/25 08:39:54;;;;;;;8.77;4.10;;;8.10;65.20;;;;;;5071337;28;20054;-84
2021/04/25 08:42:19;;;;;;;8.13;4.50;;;8.10;64.80;;;;;;5055520;28;20021;-83
2021/04/25 08:44:45;;;;;;;8.23;3.60;;;8.00;64.70;;;;;;5073999;28;20029;-82
2021/04/25 08:47:12;;;;;;;7.00;3.43;;;8.10;64.80;;;;;;5056280;28;20017;-84
2021/04/25 08:49:39;;;;;;;8.30;4.10;;;8.20;64.30;;;;;;5054845;28;20025;-81
2021/04/25 08:52:06;;;;;;;12.17;5.37;;;8.20;63.50;;;;;;5054942;28;20082;-85
2021/04/25 08:54:32;;;;;;;7.80;4.90;;;8.20;63.10;;;;;;5067447;28;20372;-84
2021/04/25 08:56:58;;;;;;;6.10;4.30;;;8.20;63.50;;;;;;5047252;28;20025;-85
2021/04/25 08:59:24;;;;;;;9.53;4.27;;;8.20;64.10;;;;;;5054731;28;20477;-84
2021/04/25 09:01:50;;;;;;;9.33;4.30;;;8.40;66.20;;;;;;5042889;28;20032;-81
2021/04/25 09:04:41;;;;;;;8.57;4.33;;;8.40;67.80;;;;;;5052436;28;20119;-85
2021/04/25 09:07:14;;;;;;;6.87;3.70;;;8.50;65.70;;;;;;5054081;28;20052;-81
2021/04/25 09:09:48;;;;;;;7.90;3.63;;;8.40;68.00;;;;;;5053769;28;20102;-81
2021/04/25 09:12:32;;;;;;;7.83;4.77;;;8.50;66.70;;;;;;5072277;28;20036;-82
2021/04/25 09:14:58;;;;;;;7.70;4.07;;;8.60;66.20;;;;;;5053596;28;20064;-82
2021/04/25 09:17:24;;;;;;;8.27;4.10;;;8.80;65.10;;;;;;5072481;28;20035;-82
2021/04/25 09:19:51;;;;;;;5.77;3.67;;;8.90;64.00;;;;;;5072311;28;20038;-82
2021/04/25 09:22:18;;;;;;;12.00;4.33;;;8.90;64.20;;;;;;5072991;28;20096;-81
2021/04/25 09:24:44;;;;;;;11.63;6.07;;;8.90;63.10;;;;;;5073604;28;20059;-82
2021/04/25 09:27:10;;;;;;;8.63;3.40;;;8.80;64.80;;;;;;5074714;28;20016;-82
2021/04/25 09:29:53;;;;;;;7.57;3.60;;;8.50;64.80;;;;;;5057899;28;20025;-82
2021/04/25 09:32:25;;;;;;;7.23;3.57;;;8.60;64.40;;;;;;5057816;28;20029;-82
2021/04/25 09:35:13;;;;;;;7.80;3.43;;;8.30;64.50;;;;;;5075687;28;20033;-81
2021/04/25 09:37:43;;;;;;;11.33;5.23;;;8.20;65.10;;;;;;5057316;28;20039;-82
2021/04/25 09:40:50;;;;;;;8.37;3.30;;;8.30;64.80;;;;;;5074946;28;20070;-82
2021/04/25 09:43:37;;;;;;;10.43;3.77;;;8.20;63.90;;;;;;5073179;28;20463;-84
2021/04/25 09:46:03;;;;;;;5.93;3.30;;;8.40;63.70;;;;;;5045109;28;20063;-85
2021/04/25 09:48:33;;;;;;;7.90;3.80;;;8.50;63.30;;;;;;5049475;28;20430;-85
2021/04/25 09:51:07;;;;;;;6.13;3.97;;;8.70;62.70;;;;;;5057160;28;20034;-85
2021/04/25 09:53:34;;;;;;;6.37;3.47;;;8.70;62.80;;;;;;5073577;28;20032;-84
2021/04/25 09:56:00;;;;;;;6.60;3.50;;;8.80;62.90;;;;;;5073398;28;20662;-85
2021/04/25 09:58:28;;;;;;;6.70;3.33;;;9.00;62.20;;;;;;5057857;28;20021;-84
2021/04/25 10:00:55;;;;;;;10.60;4.47;;;8.90;63.20;;;;;;5076698;28;20025;-84
2021/04/25 10:03:37;;;;;;;8.37;3.90;;;9.00;65.20;;;;;;5075549;28;20091;-85
2021/04/25 10:06:06;;;;;;;6.93;4.00;;;9.10;63.20;;;;;;5075098;28;20090;-81
2021/04/25 10:08:34;;;;;;;7.30;3.90;;;9.10;62.70;;;;;;5076876;28;20116;-80
2021/04/25 10:11:04;;;;;;;9.87;4.67;;;9.10;65.80;;;;;;5075799;28;20090;-81
2021/04/25 10:13:31;;;;;;;10.90;4.05;;;9.00;64.20;;;;;;5075090;28;20115;-80
2021/04/25 10:15:57;;;;;;;8.67;3.57;;;9.00;64.00;;;;;;5059634;28;20207;-80
2021/04/25 10:18:23;;;;;;;7.57;3.70;;;9.10;63.50;;;;;;5084265;28;20116;-81
2021/04/25 10:20:51;;;;;;;10.27;4.40;;;9.10;63.10;;;;;;5073312;28;20080;-82
2021/04/25 10:23:18;;;;;;;6.93;3.40;;;9.10;62.10;;;;;;5053912;28;20055;-82
2021/04/25 10:25:44;;;;;;;9.27;3.67;;;9.10;61.80;;;;;;5055312;28;20029;-80
2021/04/25 10:28:15;;;;;;;8.73;4.53;;;8.90;61.90;;;;;;5084110;28;20029;-81
2021/04/25 10:30:42;;;;;;;10.83;4.53;;;9.10;62.80;;;;;;5060600;28;20028;-81
2021/04/25 10:33:08;;;;;;;9.80;4.33;;;9.00;62.10;;;;;;5079275;28;20029;-82
2021/04/25 10:35:35;;;;;;;8.77;3.97;;;9.00;63.10;;;;;;5072711;28;20368;-80
2021/04/25 10:38:03;;;;;;;10.63;3.63;;;9.10;63.00;;;;;;5072327;28;20063;-81
2021/04/25 10:40:37;;;;;;;7.80;3.47;;;9.00;62.80;;;;;;5072144;28;20053;-82
2021/04/25 10:43:11;;;;;;;7.53;3.73;;;9.20;62.70;;;;;;5054502;28;20017;-81
2021/04/25 10:45:56;;;;;;;7.37;3.30;;;9.30;62.40;;;;;;5072771;28;20424;-81
2021/04/25 10:48:35;;;;;;;11.60;2.93;;;9.30;60.80;;;;;;5071226;28;20044;-81
2021/04/25 10:51:14;;;;;;;;;;;9.30;60.60;;;;;;5072396;28;20529;-82
2021/04/25 10:53:47;;;;;;;8.00;3.55;;;9.20;60.50;;;;;;5072323;28;19962;-81
2021/04/25 10:56:15;;;;;;;8.43;4.30;;;9.30;61.30;;;;;;5054307;28;20037;-80
2021/04/25 10:58:43;;;;;;;9.98;5.05;;;9.30;60.50;;;;;;5054227;28;20033;-81
2021/04/25 11:01:29;;;;;;;5.80;3.90;;;9.20;60.20;;;;;;5053779;28;20115;-81
2021/04/25 11:03:54;;;;;;;9.13;4.00;;;9.30;61.20;;;;;;5073144;28;20025;-82
2021/04/25 11:06:25;;;;;;;8.97;3.43;;;9.40;60.70;;;;;;5073526;28;20021;-81
2021/04/25 11:08:51;;;;;;;6.03;3.17;;;9.40;61.00;;;;;;5054000;28;20107;-81
2021/04/25 11:11:29;;;;;;;8.27;3.10;;;9.50;61.10;;;;;;5072274;28;20059;-81
2021/04/25 11:13:57;;;;;;;8.45;2.90;;;9.60;60.20;;;;;;5072483;28;20443;-82
2021/04/25 11:16:22;;;;;;;5.27;2.47;;;9.60;59.90;;;;;;5084844;22;20131;-82
2021/04/25 11:19:10;;;;;;;7.03;3.30;;;9.50;60.00;;;;;;5056231;28;20036;-84
2021/04/25 11:21:46;;;;;;;8.20;2.70;;;9.60;60.80;;;;;;5060806;28;20370;-83
2021/04/25 11:24:12;;;;;;;8.70;3.00;;;9.60;60.60;;;;;;5056149;28;20048;-85
2021/04/25 11:26:47;;;;;;;8.33;2.90;;;9.60;60.30;;;;;;5055968;28;20435;-83
2021/04/25 11:29:49;;;;;;;5.50;2.37;;;9.60;60.10;;;;;;5055667;28;20534;-83
2021/04/25 11:32:27;;;;;;;7.43;2.77;;;9.70;59.40;;;;;;5056090;28;20050;-84
2021/04/25 11:35:01;;;;;;;7.10;3.10;;;9.60;59.20;;;;;;5058196;28;20032;-83
2021/04/25 11:37:27;;;;;;;8.83;3.20;;;9.70;59.60;;;;;;5058040;28;20415;-83
2021/04/25 11:40:07;;;;;;;7.70;3.83;;;9.80;59.70;;;;;;5056956;28;20094;-83
2021/04/25 11:42:47;;;;;;;8.63;3.03;;;9.80;58.90;;;;;;5058895;28;20496;-82
2021/04/25 11:45:18;;;;;;;7.87;2.80;;;9.80;59.20;;;;;;5045428;28;20021;-83
2021/04/25 11:47:49;;;;;;;6.13;2.43;;;9.90;59.50;;;;;;5035981;28;20025;-84
2021/04/25 11:50:17;;;;;;;5.93;2.60;;;9.90;58.80;;;;;;5036701;28;20020;-84
2021/04/25 11:52:42;;;;;;;7.53;2.80;;;9.70;58.90;;;;;;5037978;28;20079;-82
2021/04/25 11:55:17;;;;;;;5.87;2.27;;;9.60;59.20;;;;;;5037622;28;20032;-85
2021/04/25 11:57:45;;;;;;;8.03;2.80;;;9.80;59.50;;;;;;5056224;28;20025;-83
2021/04/25 12:00:23;;;;;;;8.57;3.37;;;9.90;59.70;;;;;;5057824;28;20571;-83
2021/04/25 12:03:00;;;;;;;8.90;2.93;;;10.00;59.10;;;;;;5058005;28;20062;-84
2021/04/25 12:05:38;;;;;;;7.37;3.83;;;10.00;59.30;;;;;;5075168;28;20024;-85
2021/04/25 12:08:12;;;;;;;13.73;4.40;;;10.00;59.40;;;;;;5058438;28;20111;-84
2021/04/25 12:10:43;;;;;;;8.10;3.30;;;9.90;61.40;;;;;;5073966;28;20024;-83
2021/04/25 12:13:17;;;;;;;6.10;2.97;;;10.00;58.60;;;;;;5054904;28;20499;-83
2021/04/25 12:16:02;;;;;;;7.27;3.40;;;10.00;59.10;;;;;;5075576;28;20105;-82
2021/04/25 12:18:36;;;;;;;10.57;4.77;;;10.10;59.00;;;;;;5074520;28;20449;-84
2021/04/25 12:21:14;;;;;;;8.17;4.30;;;10.20;69.40;;;;;;5056925;28;20023;-82
2021/04/25 12:23:53;;;;;;;7.73;4.00;;;10.00;64.50;;;;;;5058151;28;20017;-82
2021/04/25 12:26:21;;;;;;;7.18;3.78;;;10.10;64.60;;;;;;5075768;28;20254;-82
2021/04/25 12:28:50;;;;;;;8.27;3.90;;;10.10;71.20;;;;;;5075561;28;20107;-82
2021/04/25 12:31:18;;;;;;;6.85;3.97;;;10.10;60.60;;;;;;5057548;28;20063;-82
2021/04/25 12:33:54;;;;;;;10.60;4.50;;;10.00;61.70;;;;;;5075473;28;20450;-81
2021/04/25 12:36:21;;;;;;;11.73;5.17;;;10.10;65.50;;;;;;5057532;28;20025;-84
2021/04/25 12:39:03;;;;;;;10.17;4.63;;;9.90;61.30;;;;;;5056669;28;20503;-82
2021/04/25 12:41:39;;;;;;;6.93;4.40;;;9.90;69.80;;;;;;5075612;28;20017;-83
2021/04/25 12:44:05;;;;;;;7.80;4.30;;;10.00;70.50;;;;;;5057142;28;20017;-82
2021/04/25 12:46:31;;;;;;;7.10;4.27;;;10.10;72.00;;;;;;5056394;28;20380;-83
2021/04/25 12:49:02;;;;;;;8.67;4.33;;;10.10;68.40;;;;;;5075148;28;20203;-82
2021/04/25 12:51:42;;;;;;;10.43;4.87;;;10.20;66.00;;;;;;5074697;28;20500;-82
2021/04/25 12:54:19;;;;;;;11.10;4.37;;;10.20;66.30;;;;;;5074595;28;20020;-82